Airfield :
LOGIN :

Register | Disclaimer

   EN    FR    IT 

 










Legend :    VFR   Marginal VFR   IFR   Intensive IFR   Very Intensive IFR
Visi :
Ceiling :
>= 8 km
>= 3000ft
5 to 8 km
1000 to 3000 ft
1500m to 5 km
500 to 1000 ft
800 to 1500m
200 to 500 ft
< 800m
< 200 ft
Symbols :   Thunderstorms  Fog  Heavy snow  Heavy precipitations  Wind > 20 kt
SIGMETs :     Misc.  Thunderstorms  Icing  Turbulence  Mountain Waves  Volcanic Ashes






- Airport Elevation : 5600 ft
- IATA code : SMV


LSZS - Samedan

CURRENT METAR :
  • 022050Z AUTO VRB02KT 9999 SCT055 05/02 Q1017

EXPIRED METARs :
  • 022020Z AUTO VRB02KT 9999 FEW060 08/03 Q1017
  • 021950Z AUTO VRB01KT 9999 FEW055 07/02 Q1017
  • 021920Z AUTO 17002KT 9999 FEW065 09/03 Q1017
  • 021850Z AUTO 03005KT 340V060 9999 NCD 10/02 Q1016
  • 021820Z AUTO 34005KT 300V030 9999 NCD 13/01 Q1016

TAF TAF LSZS
Valid from the 02 at 15:00 until the 03 at 00:00 UTC


021425Z 0215/0224 36008KT 9999 FEW080 TX18/0215Z
BECMG 0217/0220 VRB03KT CAVOK
ATIS : +41 81 834 93 24



MET'MAP, your aeronautical weather chart ! - Copyright ORBIFLY December 2007 - Disclaimer

ORBIFLY MET'MAP TEAM :

Programming & Development : Alexandra Zaïnal
Concept & original design : Baudouin d'Aumeries
Assistance for programming : Marc-Olivier Méhu
Technical & hardware support : Manuel Goepfert

Contact : metmap@orbifly.com




SOURCES & CREDITS :

   NOAA